Time;durP1;ratioP1;P1;durP2;ratioP2;P2;SDS_P1;SDS_P2;PMS_P1;PMS_P2;Temp;Humidity;BMP_temperature;BMP_pressure;BME280_temperature;BME280_humidity;BME280_pressure;Samples;Min_cycle;Max_cycle;Signal;HPM_P1;HPM_P2
2023/01/10 00:01:58;;;;;;;111.80;40.63;;;;;;;5.03;100.00;99040.16;5069422;28;20196;-56
2023/01/10 00:04:27;;;;;;;127.00;43.63;;;;;;;5.03;100.00;99036.72;5069706;28;20583;-56
2023/01/10 00:06:54;;;;;;;128.73;45.03;;;;;;;5.09;100.00;99039.19;5069821;28;20729;-57
2023/01/10 00:09:21;;;;;;;134.27;44.23;;;;;;;5.20;100.00;99027.03;5069510;28;20294;-56
2023/01/10 00:14:34;;;;;;;131.47;44.57;;;;;;;5.26;100.00;99018.38;5069055;28;20195;-56
2023/01/10 00:17:02;;;;;;;129.77;45.43;;;;;;;5.26;100.00;99011.50;5069242;28;20219;-56
2023/01/10 00:19:29;;;;;;;129.07;46.37;;;;;;;5.33;100.00;99012.25;5069259;28;20231;-56
2023/01/10 00:22:04;;;;;;;138.53;45.30;;;;;;;5.46;100.00;99000.91;5069299;28;20290;-57
2023/01/10 00:24:31;;;;;;;128.37;44.87;;;;;;;5.36;100.00;98996.78;5069296;28;20198;-57
2023/01/10 00:26:58;;;;;;;116.50;42.33;;;;;;;5.31;100.00;98989.13;5069026;28;20224;-56
2023/01/10 00:29:28;;;;;;;135.20;45.43;;;;;;;5.35;100.00;98987.34;5069380;28;20198;-57
2023/01/10 00:31:55;;;;;;;137.03;46.10;;;;;;;5.28;100.00;98989.19;5069122;28;20239;-56
2023/01/10 00:34:24;;;;;;;126.13;44.03;;;;;;;5.30;100.00;98986.59;5068949;28;20669;-56
2023/01/10 00:36:51;;;;;;;121.00;45.67;;;;;;;5.27;100.00;98974.63;5068969;28;20586;-57
2023/01/10 00:39:19;;;;;;;137.93;45.17;;;;;;;5.29;100.00;98969.47;5069062;28;20203;-57
2023/01/10 00:44:31;;;;;;;125.53;46.43;;;;;;;5.14;100.00;98974.84;5068766;28;20253;-56
2023/01/10 00:46:58;;;;;;;136.47;46.33;;;;;;;5.17;100.00;98947.34;5068872;28;20199;-56
2023/01/10 00:49:26;;;;;;;138.17;46.67;;;;;;;5.13;100.00;98960.28;5069267;28;20265;-57
2023/01/10 00:51:56;;;;;;;138.20;46.63;;;;;;;5.20;100.00;98974.72;5068783;28;20200;-57
2023/01/10 00:54:23;;;;;;;140.10;45.27;;;;;;;5.19;100.00;98988.50;5068837;28;20200;-55
2023/01/10 00:56:50;;;;;;;138.00;46.17;;;;;;;5.10;100.00;98979.16;5068638;28;20200;-58
2023/01/10 00:59:18;;;;;;;128.07;46.33;;;;;;;5.18;100.00;98967.06;5068940;28;20196;-59
2023/01/10 01:01:45;;;;;;;120.63;46.20;;;;;;;5.29;100.00;98969.47;5068662;28;20295;-59
2023/01/10 01:04:12;;;;;;;128.13;47.47;;;;;;;5.33;100.00;98971.94;5068824;28;20238;-59
2023/01/10 01:06:40;;;;;;;124.90;46.23;;;;;;;5.37;100.00;98952.16;5068891;28;20206;-59
2023/01/10 01:09:07;;;;;;;129.27;44.60;;;;;;;5.46;100.00;98955.41;5068661;28;20192;-56
2023/01/10 01:11:34;;;;;;;114.67;44.93;;;;;;;5.58;100.00;98945.78;5068760;28;20207;-56
2023/01/10 01:14:01;;;;;;;118.80;44.37;;;;;;;5.62;100.00;98963.72;5068813;28;20235;-56
2023/01/10 01:16:27;;;;;;;116.60;43.63;;;;;;;5.56;100.00;98953.53;5069107;28;20313;-57
2023/01/10 01:18:55;;;;;;;116.23;44.50;;;;;;;5.67;100.00;98956.75;5068528;28;20220;-55
2023/01/10 01:21:26;;;;;;;104.00;42.37;;;;;;;5.66;100.00;98964.50;5068664;28;20203;-56
2023/01/10 01:23:56;;;;;;;110.30;42.67;;;;;;;5.67;100.00;98958.50;5068452;28;20196;-56
2023/01/10 01:26:23;;;;;;;121.80;45.33;;;;;;;5.69;100.00;98949.00;5070111;28;20308;-59
2023/01/10 01:28:50;;;;;;;114.20;42.77;;;;;;;5.62;100.00;98950.88;5072321;28;20192;-59
2023/01/10 01:31:17;;;;;;;113.33;43.67;;;;;;;5.76;100.00;98958.31;5072628;28;20202;-59
2023/01/10 01:33:45;;;;;;;111.33;40.20;;;;;;;5.83;100.00;98953.03;5072357;28;20307;-59
2023/01/10 01:36:12;;;;;;;119.53;43.70;;;;;;;5.79;100.00;98961.69;5072244;28;20668;-59
2023/01/10 01:38:40;;;;;;;100.43;40.53;;;;;;;5.76;100.00;98954.00;5072211;28;20227;-60
2023/01/10 01:41:55;;;;;;;93.03;37.90;;;;;;;5.80;100.00;98941.94;5072140;28;20200;-60
2023/01/10 01:44:02;;;;;;;99.37;38.37;;;;;;;5.88;100.00;98923.75;5071628;28;20203;-60
2023/01/10 01:46:29;;;;;;;102.37;38.20;;;;;;;5.89;100.00;98921.19;5071684;28;20206;-57
2023/01/10 01:48:56;;;;;;;96.17;36.50;;;;;;;5.89;100.00;98921.19;5071507;28;20192;-58
2023/01/10 01:51:28;;;;;;;96.33;35.77;;;;;;;5.95;100.00;98899.63;5071665;28;20206;-57
2023/01/10 01:53:59;;;;;;;99.40;35.53;;;;;;;5.90;100.00;98891.13;5071362;28;20636;-56
2023/01/10 01:56:31;;;;;;;100.17;36.73;;;;;;;5.87;100.00;98902.31;5071914;28;20561;-57
2023/01/10 01:59:02;;;;;;;90.47;35.33;;;;;;;5.88;100.00;98913.47;5072184;28;20315;-56
2023/01/10 02:01:31;;;;;;;91.77;35.70;;;;;;;5.79;100.00;98904.19;5071999;28;20204;-56
2023/01/10 02:04:06;;;;;;;98.67;36.40;;;;;;;5.84;100.00;98892.94;5071837;28;20192;-57
2023/01/10 02:06:33;;;;;;;94.33;35.57;;;;;;;5.91;100.00;98885.09;5072169;28;20209;-57
2023/01/10 02:09:08;;;;;;;94.90;34.57;;;;;;;5.88;100.00;98882.56;5071554;28;20202;-56
2023/01/10 02:11:37;;;;;;;102.23;36.10;;;;;;;5.91;100.00;98864.50;5071864;28;20279;-56
2023/01/10 02:14:06;;;;;;;110.27;37.57;;;;;;;5.89;100.00;98851.66;5071594;28;20202;-57
2023/01/10 02:16:33;;;;;;;96.90;35.50;;;;;;;5.89;100.00;98858.53;5071963;28;20206;-57
2023/01/10 02:19:00;;;;;;;105.03;36.93;;;;;;;5.89;100.00;98858.53;5071382;28;20227;-57
2023/01/10 02:22:04;;;;;;;111.50;37.10;;;;;;;5.69;100.00;98846.88;5071371;28;20210;-57
2023/01/10 02:24:58;;;;;;;100.97;36.80;;;;;;;5.90;100.00;98866.22;5062000;28;20592;-56
2023/01/10 02:27:34;;;;;;;112.03;38.10;;;;;;;5.83;100.00;98838.88;5071284;28;20232;-58
2023/01/10 02:30:55;;;;;;;93.83;35.53;;;;;;;5.68;100.00;98819.44;5071760;28;20207;-57
2023/01/10 02:33:30;;;;;;;109.53;37.50;;;;;;;5.55;100.00;98801.69;5066389;28;20302;-57
2023/01/10 02:36:06;;;;;;;107.37;37.93;;;;;;;5.62;100.00;98788.69;5071341;28;20585;-56
2023/01/10 02:38:42;;;;;;;129.03;41.67;;;;;;;5.63;100.00;98800.69;5070734;28;20225;-57
2023/01/10 02:41:17;;;;;;;149.17;44.47;;;;;;;5.62;100.00;98835.03;5070995;28;20195;-57
2023/01/10 02:43:50;;;;;;;149.70;44.80;;;;;;;5.68;100.00;98829.75;5071101;28;20196;-59
2023/01/10 02:46:23;;;;;;;150.63;44.77;;;;;;;5.50;100.00;98819.81;5070990;28;20286;-60
2023/01/10 02:48:52;;;;;;;143.73;49.43;;;;;;;5.56;100.00;98837.69;5071322;28;20200;-57
2023/01/10 02:51:21;;;;;;;135.83;49.00;;;;;;;5.46;100.00;98828.47;5070732;28;20192;-60
2023/01/10 02:53:54;;;;;;;136.10;49.50;;;;;;;5.40;100.00;98832.03;5070979;28;20572;-60
2023/01/10 02:56:53;;;;;;;138.77;49.70;;;;;;;5.49;100.00;98838.72;5070833;28;20200;-57
2023/01/10 03:00:04;;;;;;;124.03;46.80;;;;;;;5.53;100.00;98827.47;5046397;28;20612;-59
2023/01/10 03:02:44;;;;;;;128.57;48.80;;;;;;;5.51;100.00;98825.81;4989101;28;20194;-59
2023/01/10 03:05:23;;;;;;;126.50;47.47;;;;;;;5.56;100.00;98829.97;5060738;28;20224;-59
2023/01/10 03:07:56;;;;;;;130.20;46.97;;;;;;;5.52;100.00;98820.63;5070533;28;20287;-57
2023/01/10 03:10:29;;;;;;;135.13;47.27;;;;;;;5.45;100.00;98817.31;5070480;28;20200;-60
2023/01/10 03:13:01;;;;;;;121.43;47.17;;;;;;;5.51;100.00;98820.66;5070446;28;20198;-58
2023/01/10 03:15:33;;;;;;;133.10;49.70;;;;;;;5.41;100.00;98825.16;5070622;28;20274;-57
2023/01/10 03:18:04;;;;;;;140.40;50.80;;;;;;;5.48;100.00;98826.72;5070268;28;20230;-59
2023/01/10 03:20:35;;;;;;;134.77;48.17;;;;;;;5.54;100.00;98810.28;5070317;28;20314;-59
2023/01/10 03:23:05;;;;;;;129.20;48.97;;;;;;;5.65;100.00;98804.03;5070475;28;20586;-60
2023/01/10 03:25:36;;;;;;;140.43;50.17;;;;;;;5.64;100.00;98799.81;5070175;28;20207;-60
2023/01/10 03:28:07;;;;;;;139.13;49.40;;;;;;;5.56;100.00;98799.09;5070108;28;20195;-60
2023/01/10 03:30:41;;;;;;;145.53;50.30;;;;;;;5.48;100.00;98822.41;5070150;28;20286;-60
2023/01/10 03:33:10;;;;;;;141.53;51.30;;;;;;;5.53;100.00;98808.63;5069717;28;20735;-60
2023/01/10 03:35:48;;;;;;;130.17;47.37;;;;;;;5.55;100.00;98792.25;5070463;28;20654;-60
2023/01/10 03:38:24;;;;;;;145.17;49.43;;;;;;;5.45;100.00;98777.88;5070039;28;20314;-56
2023/01/10 03:41:00;;;;;;;154.67;50.47;;;;;;;5.32;100.00;98756.69;5069954;28;20198;-57
2023/01/10 03:46:27;;;;;;;159.67;49.23;;;;;;;5.49;100.00;98789.81;5069908;28;20276;-60
2023/01/10 03:48:57;;;;;;;163.43;51.33;;;;;;;5.49;100.00;98794.97;5069002;28;20199;-60
2023/01/10 03:51:27;;;;;;;159.53;50.50;;;;;;;5.50;100.00;98790.66;5069879;28;20282;-60
2023/01/10 03:53:54;;;;;;;163.37;51.27;;;;;;;5.61;100.00;98771.53;5069737;28;20660;-57
2023/01/10 03:56:21;;;;;;;159.53;52.53;;;;;;;5.65;100.00;98762.00;5069390;28;20604;-58
2023/01/10 03:58:48;;;;;;;157.63;49.13;;;;;;;5.61;100.00;98760.41;5069668;28;20242;-60
2023/01/10 04:01:16;;;;;;;165.27;49.90;;;;;;;5.63;100.00;98746.63;5069493;28;20192;-61
2023/01/10 04:03:43;;;;;;;165.10;52.27;;;;;;;5.57;100.00;98726.16;5069804;28;20561;-60
2023/01/10 04:06:10;;;;;;;157.07;51.00;;;;;;;5.59;100.00;98713.25;5069397;28;20586;-60
2023/01/10 04:08:38;;;;;;;151.23;49.10;;;;;;;5.56;100.00;98706.44;5069223;28;20200;-60
2023/01/10 04:11:05;;;;;;;144.80;49.73;;;;;;;5.72;100.00;98723.25;5069280;28;20210;-62
2023/01/10 04:13:36;;;;;;;127.00;46.50;;;;;;;5.73;100.00;98717.22;5069454;28;20585;-60
2023/01/10 04:16:04;;;;;;;146.40;47.93;;;;;;;5.62;100.00;98736.34;5069405;28;20196;-57
2023/01/10 04:18:31;;;;;;;139.23;47.67;;;;;;;5.68;100.00;98744.78;5069440;28;20662;-61
2023/01/10 04:20:58;;;;;;;131.67;46.87;;;;;;;5.61;100.00;98743.22;5069132;28;20205;-60
2023/01/10 04:23:25;;;;;;;146.03;50.00;;;;;;;5.64;100.00;98750.91;5069176;28;20192;-60
2023/01/10 04:25:53;;;;;;;141.50;47.07;;;;;;;5.69;100.00;98748.19;5069025;28;20208;-60
2023/01/10 04:28:20;;;;;;;146.57;49.20;;;;;;;5.77;100.00;98756.59;5068590;28;20192;-60
2023/01/10 04:30:47;;;;;;;154.03;53.13;;;;;;;5.71;100.00;98752.44;5068850;28;20206;-60
2023/01/10 04:33:14;;;;;;;145.50;51.93;;;;;;;5.69;100.00;98738.75;5069350;28;20207;-61
2023/01/10 04:35:41;;;;;;;151.20;50.83;;;;;;;5.70;100.00;98730.16;5068918;28;20210;-61
2023/01/10 04:38:08;;;;;;;161.63;52.10;;;;;;;5.66;100.00;98736.25;5069278;28;20303;-60
2023/01/10 04:40:35;;;;;;;157.40;50.83;;;;;;;5.72;100.00;98738.69;5069217;28;20218;-60
2023/01/10 04:43:03;;;;;;;158.37;49.30;;;;;;;5.65;100.00;98733.69;5068354;28;20202;-60
2023/01/10 04:45:30;;;;;;;146.67;50.00;;;;;;;5.71;100.00;98734.44;5067965;28;20207;-60
2023/01/10 04:47:58;;;;;;;144.33;49.70;;;;;;;5.70;100.00;98735.31;5068091;28;20196;-59
2023/01/10 04:50:26;;;;;;;150.37;49.17;;;;;;;5.73;100.00;98734.41;5067915;28;20198;-60
2023/01/10 04:52:53;;;;;;;142.63;48.93;;;;;;;5.58;100.00;98727.00;5068505;28;20593;-60
2023/01/10 04:55:20;;;;;;;147.63;50.53;;;;;;;5.87;100.00;98745.22;5067917;28;20287;-60
2023/01/10 04:57:47;;;;;;;151.23;53.67;;;;;;;5.80;100.00;98728.22;5065971;28;20203;-60
2023/01/10 05:00:16;;;;;;;155.73;53.90;;;;;;;5.81;100.00;98733.34;5070189;28;20223;-60
2023/01/10 05:02:43;;;;;;;134.60;49.70;;;;;;;5.83;100.00;98730.72;5072507;28;20286;-60
2023/01/10 05:05:12;;;;;;;139.63;51.70;;;;;;;5.68;100.00;98719.03;5072553;28;20195;-60
2023/01/10 05:07:39;;;;;;;148.50;52.27;;;;;;;5.55;100.00;98709.88;5072849;28;20210;-60
2023/01/10 05:10:08;;;;;;;131.43;50.67;;;;;;;5.60;100.00;98713.22;5072805;28;20202;-60
2023/01/10 05:12:35;;;;;;;145.87;53.97;;;;;;;5.65;100.00;98713.94;5073010;28;20700;-59
2023/01/10 05:15:02;;;;;;;143.67;53.47;;;;;;;5.60;100.00;98708.06;5072633;28;20206;-60
2023/01/10 05:17:30;;;;;;;143.07;54.57;;;;;;;5.55;100.00;98714.19;5072657;28;20672;-60
2023/01/10 05:19:57;;;;;;;153.67;53.87;;;;;;;5.50;100.00;98711.72;5072776;28;20594;-59
2023/01/10 05:22:24;;;;;;;161.87;54.87;;;;;;;5.48;100.00;98703.19;5072761;28;20203;-59
2023/01/10 05:24:51;;;;;;;154.47;52.33;;;;;;;5.58;100.00;98709.81;5071658;28;20204;-60
2023/01/10 05:27:17;;;;;;;150.30;53.60;;;;;;;5.61;100.00;98709.75;5071409;28;20231;-59
2023/01/10 05:29:44;;;;;;;165.37;54.00;;;;;;;5.52;100.00;98707.41;5071514;28;20192;-59
2023/01/10 05:32:11;;;;;;;142.60;52.30;;;;;;;5.47;100.00;98702.34;5071570;28;20206;-59
2023/01/10 05:34:40;;;;;;;173.30;55.97;;;;;;;5.43;100.00;98705.84;5071524;28;20200;-56
2023/01/10 05:37:07;;;;;;;166.33;53.90;;;;;;;5.40;100.00;98687.91;5071667;28;20245;-59
2023/01/10 05:39:34;;;;;;;169.77;56.50;;;;;;;5.40;100.00;98674.19;5071859;28;20235;-58
2023/01/10 05:42:01;;;;;;;164.57;55.30;;;;;;;5.30;100.00;98678.69;5072058;28;20636;-55
2023/01/10 05:44:28;;;;;;;163.60;53.90;;;;;;;5.32;100.00;98664.06;5072058;28;20196;-56
2023/01/10 05:46:55;;;;;;;164.77;52.77;;;;;;;5.36;100.00;98673.41;5071958;28;20192;-57
2023/01/10 05:49:21;;;;;;;171.20;56.70;;;;;;;5.50;100.00;98685.13;5072188;28;20188;-57
2023/01/10 05:51:50;;;;;;;168.37;55.50;;;;;;;5.59;100.00;98667.75;5072065;28;20196;-57
2023/01/10 05:54:17;;;;;;;171.07;53.70;;;;;;;5.56;100.00;98675.53;5072175;28;20282;-57
2023/01/10 05:56:44;;;;;;;176.50;56.50;;;;;;;5.51;100.00;98679.97;5072036;28;20219;-57
2023/01/10 05:59:11;;;;;;;160.40;53.93;;;;;;;5.53;100.00;98685.91;5071602;28;20219;-56
2023/01/10 06:01:37;;;;;;;169.60;55.87;;;;;;;5.55;100.00;98691.88;5071879;28;20207;-58
2023/01/10 06:04:04;;;;;;;179.47;54.07;;;;;;;5.56;100.00;98700.44;5071726;28;20196;-59
2023/01/10 06:06:33;;;;;;;160.30;52.30;;;;;;;5.53;100.00;98698.75;5071724;28;20199;-57
2023/01/10 06:09:01;;;;;;;178.57;53.80;;;;;;;5.47;100.00;98691.19;5071727;28;20242;-55
2023/01/10 06:11:29;;;;;;;188.07;55.07;;;;;;;5.50;100.00;98693.72;5070727;28;20250;-56
2023/01/10 06:13:56;;;;;;;172.30;55.37;;;;;;;5.50;100.00;98698.84;5071634;28;20207;-57
2023/01/10 06:16:23;;;;;;;191.97;56.93;;;;;;;5.52;100.00;98688.53;5071529;28;20202;-56
2023/01/10 06:18:50;;;;;;;179.17;57.20;;;;;;;5.63;100.00;98695.13;5071681;28;20243;-56
2023/01/10 06:21:16;;;;;;;200.97;55.70;;;;;;;5.67;100.00;98693.31;5071171;28;20210;-56
2023/01/10 06:23:43;;;;;;;175.30;55.70;;;;;;;5.77;100.00;98695.66;5070096;28;20202;-58
2023/01/10 06:26:12;;;;;;;184.63;52.90;;;;;;;5.84;100.00;98704.94;5069553;28;20235;-56
2023/01/10 06:28:40;;;;;;;184.73;54.20;;;;;;;5.87;100.00;98716.06;5068404;28;20585;-60
2023/01/10 06:31:07;;;;;;;204.20;56.23;;;;;;;5.89;100.00;98696.28;5070875;28;20245;-60
2023/01/10 06:33:35;;;;;;;172.90;54.57;;;;;;;5.81;100.00;98701.59;5070964;28;20592;-59
2023/01/10 06:36:02;;;;;;;187.57;55.00;;;;;;;5.72;100.00;98686.34;5071540;28;20660;-59
2023/01/10 06:38:29;;;;;;;188.57;54.27;;;;;;;5.72;100.00;98674.34;5067533;28;20274;-59
2023/01/10 06:40:56;;;;;;;196.40;57.73;;;;;;;5.68;100.00;98684.72;5070718;28;20220;-58
2023/01/10 06:43:24;;;;;;;195.60;56.37;;;;;;;5.72;100.00;98687.22;5070770;28;20227;-60
2023/01/10 06:45:51;;;;;;;210.03;57.30;;;;;;;5.62;100.00;98680.56;5070753;28;20222;-59
2023/01/10 06:48:18;;;;;;;204.47;55.80;;;;;;;5.59;100.00;98683.19;5069801;28;20270;-59
2023/01/10 06:50:45;;;;;;;181.97;57.63;;;;;;;5.56;100.00;98690.97;5070476;28;20254;-54
2023/01/10 06:53:11;;;;;;;198.13;59.13;;;;;;;5.57;100.00;98684.13;5068178;28;20222;-54
2023/01/10 06:55:38;;;;;;;192.13;58.57;;;;;;;5.47;100.00;98676.59;5069727;28;20211;-61
2023/01/10 06:58:05;;;;;;;201.43;61.37;;;;;;;5.43;100.00;98679.25;5069047;28;20677;-56
2023/01/10 07:00:33;;;;;;;198.03;61.17;;;;;;;5.46;100.00;98690.34;5070421;28;20241;-56
2023/01/10 07:03:01;;;;;;;212.13;59.83;;;;;;;5.44;100.00;98692.09;5069007;28;20682;-57
2023/01/10 07:05:29;;;;;;;206.70;63.13;;;;;;;5.39;100.00;98680.22;5070357;28;20202;-55
2023/01/10 07:07:57;;;;;;;201.30;59.67;;;;;;;5.42;100.00;98664.69;5070840;28;20211;-56
2023/01/10 07:10:24;;;;;;;196.97;58.50;;;;;;;5.47;100.00;98680.91;5070950;28;20702;-56
2023/01/10 07:12:50;;;;;;;188.37;59.70;;;;;;;5.51;100.00;98661.94;5071058;28;20203;-57
2023/01/10 07:15:17;;;;;;;196.73;59.73;;;;;;;5.52;100.00;98661.06;5071084;28;20200;-56
2023/01/10 07:17:46;;;;;;;188.57;57.87;;;;;;;5.48;100.00;98660.28;5070580;28;20694;-56
2023/01/10 07:20:13;;;;;;;182.87;56.40;;;;;;;5.52;100.00;98655.91;5070651;28;20224;-56
2023/01/10 07:22:40;;;;;;;190.17;57.97;;;;;;;5.43;100.00;98653.53;5071048;28;20752;-60
2023/01/10 07:25:07;;;;;;;201.43;57.83;;;;;;;5.48;100.00;98651.72;5070690;28;20584;-61
2023/01/10 07:27:34;;;;;;;189.57;56.00;;;;;;;5.61;100.00;98654.88;5070392;28;20236;-61
2023/01/10 07:30:01;;;;;;;188.93;58.13;;;;;;;5.65;100.00;98648.75;5070351;28;20287;-60
2023/01/10 07:32:28;;;;;;;213.77;70.63;;;;;;;5.67;100.00;98632.38;5067985;28;20202;-60
2023/01/10 07:34:57;;;;;;;218.20;70.97;;;;;;;5.65;100.00;98626.41;5059676;28;20212;-55
2023/01/10 07:37:23;;;;;;;195.73;59.63;;;;;;;5.69;100.00;98622.91;5050836;28;20223;-56
2023/01/10 07:39:51;;;;;;;189.53;54.90;;;;;;;5.80;100.00;98620.06;5050272;28;20544;-57
2023/01/10 07:42:18;;;;;;;184.53;56.30;;;;;;;5.77;100.00;98613.25;5050535;28;20196;-56
2023/01/10 07:44:45;;;;;;;178.03;52.80;;;;;;;5.82;100.00;98613.16;5050447;28;20211;-58
2023/01/10 07:47:11;;;;;;;171.20;52.90;;;;;;;5.81;100.00;98614.03;5050001;28;20204;-56
2023/01/10 07:49:38;;;;;;;181.10;50.77;;;;;;;5.76;100.00;98609.00;5050336;28;20213;-56
2023/01/10 07:52:08;;;;;;;170.70;49.00;;;;;;;5.73;100.00;98614.25;5050048;28;20201;-56
2023/01/10 07:54:35;;;;;;;174.93;50.20;;;;;;;5.82;100.00;98618.31;5050157;28;20200;-56
2023/01/10 07:57:02;;;;;;;164.27;48.00;;;;;;;5.64;100.00;98596.44;5060704;28;20621;-58
2023/01/10 07:59:28;;;;;;;163.80;48.00;;;;;;;5.74;100.00;98602.22;5070458;28;20229;-56
2023/01/10 08:01:55;;;;;;;156.47;47.90;;;;;;;5.74;100.00;98600.47;5069976;28;20196;-57
2023/01/10 08:04:22;;;;;;;152.77;47.43;;;;;;;5.82;100.00;98584.84;5070312;28;20202;-60
2023/01/10 08:06:50;;;;;;;149.27;44.80;;;;;;;5.90;100.00;98587.25;5069182;28;20203;-57
2023/01/10 08:09:18;;;;;;;139.30;42.57;;;;;;;5.88;100.00;98578.69;5068873;28;20197;-57
2023/01/10 08:11:45;;;;;;;147.90;44.20;;;;;;;5.87;100.00;98572.69;5069484;28;20200;-55
2023/01/10 08:14:12;;;;;;;142.00;43.00;;;;;;;5.90;100.00;98566.66;5068821;28;20304;-56
2023/01/10 08:16:39;;;;;;;130.53;41.90;;;;;;;5.88;100.00;98573.53;5068795;28;20192;-56
2023/01/10 08:19:06;;;;;;;140.23;41.70;;;;;;;5.90;100.00;98577.78;5068598;28;20206;-57
2023/01/10 08:21:33;;;;;;;140.90;44.07;;;;;;;5.94;100.00;98578.56;5069009;28;20195;-56
2023/01/10 08:24:00;;;;;;;151.17;48.50;;;;;;;5.92;100.00;98588.06;5069218;28;20204;-56
2023/01/10 08:26:28;;;;;;;178.03;50.37;;;;;;;5.81;100.00;98584.00;5068836;28;20249;-55
2023/01/10 08:28:55;;;;;;;182.70;55.73;;;;;;;5.75;100.00;98586.72;5068809;28;20640;-56
2023/01/10 08:31:22;;;;;;;188.17;57.03;;;;;;;5.67;100.00;98586.06;5068712;28;20587;-57
2023/01/10 08:33:49;;;;;;;191.43;61.10;;;;;;;5.67;100.00;98582.63;5068759;28;20683;-61
2023/01/10 08:36:17;;;;;;;229.20;70.30;;;;;;;5.66;100.00;98576.63;5068234;28;20223;-55
2023/01/10 08:38:44;;;;;;;206.17;65.17;;;;;;;5.63;100.00;98569.00;5068662;28;20195;-60
2023/01/10 08:41:11;;;;;;;187.70;61.57;;;;;;;5.66;100.00;98558.63;5067713;28;20700;-60
2023/01/10 08:43:40;;;;;;;193.27;59.80;;;;;;;5.51;100.00;98558.16;5067983;28;20196;-60
2023/01/10 08:46:07;;;;;;;247.40;82.00;;;;;;;5.60;100.00;98553.63;5067331;28;20202;-61
2023/01/10 08:48:34;;;;;;;192.77;61.77;;;;;;;5.56;100.00;98561.44;5065209;28;20604;-57
2023/01/10 08:51:06;;;;;;;213.10;80.07;;;;;;;5.61;100.00;98552.75;5067785;28;20184;-57
2023/01/10 08:53:33;;;;;;;183.33;59.20;;;;;;;5.64;100.00;98554.41;5068177;28;20188;-57
2023/01/10 08:56:00;;;;;;;184.07;60.00;;;;;;;5.55;100.00;98547.72;5067869;28;20191;-56
2023/01/10 08:58:27;;;;;;;198.37;69.53;;;;;;;5.46;100.00;98545.38;5068115;28;20205;-56
2023/01/10 09:00:55;;;;;;;198.47;67.73;;;;;;;5.48;100.00;98549.63;5067810;28;20219;-56
2023/01/10 09:03:22;;;;;;;154.17;57.93;;;;;;;5.45;100.00;98538.53;5068020;28;20203;-56
2023/01/10 09:05:49;;;;;;;176.60;57.77;;;;;;;5.44;100.00;98542.84;5068095;28;20204;-55
2023/01/10 09:08:16;;;;;;;166.93;54.60;;;;;;;5.50;100.00;98536.72;5068238;28;20196;-56
2023/01/10 09:10:43;;;;;;;160.20;51.73;;;;;;;5.54;100.00;98515.16;5068312;28;20192;-56
2023/01/10 09:13:10;;;;;;;151.63;51.67;;;;;;;5.68;100.00;98515.66;5068325;28;20200;-57
2023/01/10 09:15:38;;;;;;;141.73;48.40;;;;;;;5.71;100.00;98505.28;5068511;28;20200;-56
2023/01/10 09:18:07;;;;;;;133.30;47.70;;;;;;;5.70;100.00;98513.91;5068507;28;20636;-56
2023/01/10 09:20:35;;;;;;;152.60;51.67;;;;;;;5.66;100.00;98501.13;5068410;28;20229;-56
2023/01/10 09:23:05;;;;;;;135.00;50.60;;;;;;;5.69;100.00;98498.50;5068149;28;20200;-56
2023/01/10 09:25:33;;;;;;;169.43;59.73;;;;;;;5.78;100.00;98499.09;5068434;28;20210;-56
2023/01/10 09:28:01;;;;;;;130.87;47.77;;;;;;;5.75;100.00;98486.31;5067989;28;20355;-57
2023/01/10 09:30:29;;;;;;;126.93;49.60;;;;;;;5.79;100.00;98481.91;5068595;28;20245;-56
2023/01/10 09:32:57;;;;;;;146.57;52.47;;;;;;;5.73;100.00;98482.94;5068226;28;20278;-56
2023/01/10 09:35:27;;;;;;;128.67;49.27;;;;;;;5.73;100.00;98470.06;5061945;28;20267;-56
2023/01/10 09:37:54;;;;;;;153.97;61.67;;;;;;;5.70;100.00;98467.56;5062916;28;20196;-56
2023/01/10 09:40:31;;;;;;;126.87;47.57;;;;;;;5.67;100.00;98465.06;5064244;28;20228;-56
2023/01/10 09:43:08;;;;;;;123.97;47.93;;;;;;;5.64;100.00;98442.00;5065212;28;20695;-57
2023/01/10 09:45:43;;;;;;;128.27;46.67;;;;;;;5.69;100.00;98434.97;5065229;28;20225;-57
2023/01/10 09:48:17;;;;;;;195.50;71.97;;;;;;;5.71;100.00;98429.81;5068892;28;20601;-61
2023/01/10 09:51:00;;;;;;;148.67;53.67;;;;;;;5.80;100.00;98437.28;5069971;28;20191;-56
2023/01/10 09:53:31;;;;;;;134.10;48.80;;;;;;;5.88;100.00;98443.06;5070743;28;20195;-56
2023/01/10 09:56:01;;;;;;;125.60;47.07;;;;;;;5.92;100.00;98433.56;5071510;28;20218;-56
2023/01/10 09:58:31;;;;;;;135.17;50.97;;;;;;;6.02;100.00;98417.81;5071284;28;20278;-57
2023/01/10 10:00:59;;;;;;;170.23;67.70;;;;;;;6.10;100.00;98420.16;5071403;28;20604;-61
2023/01/10 10:03:32;;;;;;;148.73;57.37;;;;;;;6.16;100.00;98422.56;5071229;28;20233;-62
2023/01/10 10:06:02;;;;;;;149.80;54.87;;;;;;;6.19;100.00;98409.59;5070533;28;20196;-61
2023/01/10 10:08:29;;;;;;;157.50;54.33;;;;;;;6.07;100.00;98407.38;5069674;28;20588;-62
2023/01/10 10:11:09;;;;;;;135.73;49.43;;;;;;;6.00;100.00;98392.97;5070019;28;20192;-61
2023/01/10 10:13:46;;;;;;;121.00;47.17;;;;;;;6.06;100.00;98392.81;5068896;28;20223;-61
2023/01/10 10:16:26;;;;;;;150.50;54.10;;;;;;;6.12;100.00;98402.94;5068639;28;20714;-62
2023/01/10 10:19:05;;;;;;;130.67;50.27;;;;;;;6.14;100.00;98396.00;5068740;28;20702;-56
2023/01/10 10:21:43;;;;;;;162.03;65.93;;;;;;;6.18;100.00;98402.75;5068277;28;20795;-61
2023/01/10 10:24:36;;;;;;;123.33;49.53;;;;;;;6.17;100.00;98391.63;5070781;28;20192;-61
2023/01/10 10:27:16;;;;;;;130.93;48.00;;;;;;;6.12;100.00;98370.28;5069380;28;20239;-63
2023/01/10 10:30:03;;;;;;;113.67;45.60;;;;;;;6.08;100.00;98360.13;5068441;28;20698;-63
2023/01/10 10:32:54;;;;;;;121.23;45.60;;;;;;;6.07;100.00;98348.97;5068672;28;20250;-61
2023/01/10 10:35:27;;;;;;;124.43;45.93;;;;;;;6.11;100.00;98353.13;5069326;28;20206;-61
2023/01/10 10:37:59;;;;;;;122.17;46.60;;;;;;;6.13;100.00;98343.63;5068350;28;20196;-61
2023/01/10 10:40:32;;;;;;;130.83;48.63;;;;;;;6.18;100.00;98340.94;5070494;28;20266;-61
2023/01/10 10:43:13;;;;;;;126.37;46.77;;;;;;;6.23;100.00;98340.78;5070711;28;20200;-61
2023/01/10 10:45:44;;;;;;;121.40;47.70;;;;;;;6.17;100.00;98316.06;5068163;28;20199;-61
2023/01/10 10:48:16;;;;;;;134.63;51.23;;;;;;;6.13;100.00;98317.88;5070010;28;20680;-59
2023/01/10 10:50:52;;;;;;;115.47;46.80;;;;;;;6.10;100.00;98296.50;5070208;28;20192;-59
2023/01/10 10:53:20;;;;;;;141.90;50.27;;;;;;;6.09;100.00;98300.84;5068556;28;20202;-62
2023/01/10 10:55:48;;;;;;;141.47;50.13;;;;;;;5.97;100.00;98293.50;5069924;28;20192;-62
2023/01/10 10:58:16;;;;;;;158.73;54.40;;;;;;;6.10;100.00;98314.53;5069538;28;20278;-62
2023/01/10 11:00:42;;;;;;;154.90;57.17;;;;;;;6.09;100.00;98312.88;5069857;28;20222;-62
2023/01/10 11:03:26;;;;;;;161.93;58.50;;;;;;;6.10;100.00;98311.97;5069843;28;20215;-59
2023/01/10 11:05:53;;;;;;;140.93;54.70;;;;;;;6.14;100.00;98313.56;5067587;28;20210;-62
2023/01/10 11:08:22;;;;;;;156.07;56.07;;;;;;;6.10;100.00;98309.38;5070002;28;20192;-62
2023/01/10 11:10:53;;;;;;;144.07;54.80;;;;;;;6.07;100.00;98299.19;5069725;28;20254;-62
2023/01/10 11:13:29;;;;;;;170.63;63.30;;;;;;;6.04;100.00;98283.84;5070035;28;20199;-62
2023/01/10 11:15:56;;;;;;;153.63;53.70;;;;;;;6.01;100.00;98269.31;5067810;28;20200;-63
2023/01/10 11:18:25;;;;;;;175.50;62.53;;;;;;;6.10;100.00;98281.06;5069805;28;20192;-62
2023/01/10 11:20:57;;;;;;;160.03;60.60;;;;;;;6.03;100.00;98270.09;5067009;28;20220;-63
2023/01/10 11:23:36;;;;;;;146.93;54.60;;;;;;;5.99;100.00;98253.06;5069669;28;20199;-63
2023/01/10 11:26:03;;;;;;;160.67;56.27;;;;;;;6.00;100.00;98244.44;5068123;28;20226;-63
2023/01/10 11:28:33;;;;;;;165.67;62.70;;;;;;;6.14;100.00;98241.44;5070121;28;20299;-63
2023/01/10 11:31:01;;;;;;;179.07;71.90;;;;;;;6.17;100.00;98243.94;5067316;28;20582;-63